sensor_id;sensor_type;location;lat;lon;timestamp;P1;durP1;ratioP1;P2;durP2;ratioP2
1765;SDS011;880;52.452;8.656;2022-12-18T00:01:26;36.67;;;21.03;;
1765;SDS011;880;52.452;8.656;2022-12-18T00:03:57;30.87;;;21.30;;
1765;SDS011;880;52.452;8.656;2022-12-18T00:06:26;32.67;;;22.17;;
1765;SDS011;880;52.452;8.656;2022-12-18T00:08:55;44.27;;;24.07;;
1765;SDS011;880;52.452;8.656;2022-12-18T00:11:25;39.27;;;21.37;;
1765;SDS011;880;52.452;8.656;2022-12-18T00:13:55;33.10;;;20.30;;
1765;SDS011;880;52.452;8.656;2022-12-18T00:16:24;40.50;;;21.50;;
1765;SDS011;880;52.452;8.656;2022-12-18T00:18:56;39.63;;;22.37;;
1765;SDS011;880;52.452;8.656;2022-12-18T00:21:25;32.50;;;19.93;;
1765;SDS011;880;52.452;8.656;2022-12-18T00:23:54;38.50;;;20.20;;
1765;SDS011;880;52.452;8.656;2022-12-18T00:26:25;33.73;;;20.97;;
1765;SDS011;880;52.452;8.656;2022-12-18T00:29:00;36.03;;;21.07;;
1765;SDS011;880;52.452;8.656;2022-12-18T00:31:32;32.07;;;20.00;;
1765;SDS011;880;52.452;8.656;2022-12-18T00:33:59;28.40;;;18.10;;
1765;SDS011;880;52.452;8.656;2022-12-18T00:36:28;30.10;;;20.63;;
1765;SDS011;880;52.452;8.656;2022-12-18T00:38:59;31.73;;;19.47;;
1765;SDS011;880;52.452;8.656;2022-12-18T00:41:28;26.10;;;18.60;;
1765;SDS011;880;52.452;8.656;2022-12-18T00:44:15;28.60;;;16.17;;
1765;SDS011;880;52.452;8.656;2022-12-18T00:46:44;49.20;;;26.77;;
1765;SDS011;880;52.452;8.656;2022-12-18T00:49:14;39.97;;;21.27;;
1765;SDS011;880;52.452;8.656;2022-12-18T00:51:45;29.40;;;18.67;;
1765;SDS011;880;52.452;8.656;2022-12-18T00:54:11;32.30;;;20.90;;
1765;SDS011;880;52.452;8.656;2022-12-18T00:56:39;26.60;;;18.30;;
1765;SDS011;880;52.452;8.656;2022-12-18T00:59:15;30.57;;;18.77;;
1765;SDS011;880;52.452;8.656;2022-12-18T01:01:43;25.73;;;17.13;;
1765;SDS011;880;52.452;8.656;2022-12-18T01:04:11;22.53;;;15.60;;
1765;SDS011;880;52.452;8.656;2022-12-18T01:06:38;26.23;;;15.47;;
1765;SDS011;880;52.452;8.656;2022-12-18T01:09:06;19.50;;;13.67;;
1765;SDS011;880;52.452;8.656;2022-12-18T01:11:35;21.33;;;14.83;;
1765;SDS011;880;52.452;8.656;2022-12-18T01:14:03;19.27;;;12.10;;
1765;SDS011;880;52.452;8.656;2022-12-18T01:16:30;21.67;;;13.80;;
1765;SDS011;880;52.452;8.656;2022-12-18T01:18:57;26.50;;;15.53;;
1765;SDS011;880;52.452;8.656;2022-12-18T01:21:26;18.53;;;13.70;;
1765;SDS011;880;52.452;8.656;2022-12-18T01:23:54;13.33;;;11.60;;
1765;SDS011;880;52.452;8.656;2022-12-18T01:26:22;15.67;;;11.87;;
1765;SDS011;880;52.452;8.656;2022-12-18T01:28:51;26.07;;;14.33;;
1765;SDS011;880;52.452;8.656;2022-12-18T01:31:23;20.73;;;12.77;;
1765;SDS011;880;52.452;8.656;2022-12-18T01:34:01;17.97;;;13.30;;
1765;SDS011;880;52.452;8.656;2022-12-18T01:36:31;21.10;;;14.10;;
1765;SDS011;880;52.452;8.656;2022-12-18T01:39:02;18.20;;;12.67;;
1765;SDS011;880;52.452;8.656;2022-12-18T01:41:35;18.90;;;13.27;;
1765;SDS011;880;52.452;8.656;2022-12-18T01:50:21;20.90;;;13.57;;
1765;SDS011;880;52.452;8.656;2022-12-18T01:53:19;19.00;;;12.73;;
1765;SDS011;880;52.452;8.656;2022-12-18T01:55:52;18.90;;;11.50;;
1765;SDS011;880;52.452;8.656;2022-12-18T01:58:24;22.53;;;12.33;;
1765;SDS011;880;52.452;8.656;2022-12-18T02:01:06;20.57;;;11.93;;
1765;SDS011;880;52.452;8.656;2022-12-18T02:03:33;18.87;;;11.90;;
1765;SDS011;880;52.452;8.656;2022-12-18T02:08:59;18.60;;;11.50;;
1765;SDS011;880;52.452;8.656;2022-12-18T02:14:29;19.30;;;10.70;;
1765;SDS011;880;52.452;8.656;2022-12-18T02:17:21;21.27;;;11.40;;
1765;SDS011;880;52.452;8.656;2022-12-18T02:20:06;20.17;;;11.37;;
1765;SDS011;880;52.452;8.656;2022-12-18T02:29:04;18.30;;;10.80;;
1765;SDS011;880;52.452;8.656;2022-12-18T02:31:54;14.30;;;10.00;;
1765;SDS011;880;52.452;8.656;2022-12-18T02:34:26;13.20;;;9.60;;
1765;SDS011;880;52.452;8.656;2022-12-18T02:36:57;14.57;;;10.20;;
1765;SDS011;880;52.452;8.656;2022-12-18T02:39:28;15.33;;;10.43;;
1765;SDS011;880;52.452;8.656;2022-12-18T02:42:01;13.63;;;10.00;;
1765;SDS011;880;52.452;8.656;2022-12-18T02:44:44;13.53;;;10.13;;
1765;SDS011;880;52.452;8.656;2022-12-18T02:47:18;15.70;;;8.73;;
1765;SDS011;880;52.452;8.656;2022-12-18T02:55:34;18.70;;;9.97;;
1765;SDS011;880;52.452;8.656;2022-12-18T02:59:00;15.23;;;8.03;;
1765;SDS011;880;52.452;8.656;2022-12-18T03:02:06;15.70;;;9.33;;
1765;SDS011;880;52.452;8.656;2022-12-18T03:07:55;12.57;;;8.40;;
1765;SDS011;880;52.452;8.656;2022-12-18T03:10:28;12.83;;;8.20;;
1765;SDS011;880;52.452;8.656;2022-12-18T03:13:02;14.53;;;8.90;;
1765;SDS011;880;52.452;8.656;2022-12-18T03:15:50;13.97;;;9.37;;
1765;SDS011;880;52.452;8.656;2022-12-18T03:18:21;16.97;;;9.33;;
1765;SDS011;880;52.452;8.656;2022-12-18T03:20:58;16.63;;;8.97;;
1765;SDS011;880;52.452;8.656;2022-12-18T03:23:32;20.23;;;9.53;;
1765;SDS011;880;52.452;8.656;2022-12-18T03:26:10;12.83;;;8.40;;
1765;SDS011;880;52.452;8.656;2022-12-18T03:28:44;14.00;;;8.63;;
1765;SDS011;880;52.452;8.656;2022-12-18T03:31:18;13.50;;;8.57;;
1765;SDS011;880;52.452;8.656;2022-12-18T03:36:33;15.33;;;8.73;;
1765;SDS011;880;52.452;8.656;2022-12-18T03:39:01;13.83;;;8.40;;
1765;SDS011;880;52.452;8.656;2022-12-18T03:41:41;15.40;;;8.93;;
1765;SDS011;880;52.452;8.656;2022-12-18T03:44:26;12.13;;;7.50;;
1765;SDS011;880;52.452;8.656;2022-12-18T03:47:03;12.47;;;7.70;;
1765;SDS011;880;52.452;8.656;2022-12-18T03:50:09;15.33;;;8.50;;
1765;SDS011;880;52.452;8.656;2022-12-18T03:55:14;19.60;;;9.00;;
1765;SDS011;880;52.452;8.656;2022-12-18T03:57:45;11.70;;;7.80;;
1765;SDS011;880;52.452;8.656;2022-12-18T04:00:15;12.50;;;8.73;;
1765;SDS011;880;52.452;8.656;2022-12-18T04:02:59;12.53;;;8.10;;
1765;SDS011;880;52.452;8.656;2022-12-18T04:05:34;10.40;;;8.20;;
1765;SDS011;880;52.452;8.656;2022-12-18T04:08:04;12.10;;;8.13;;
1765;SDS011;880;52.452;8.656;2022-12-18T04:10:35;14.80;;;7.97;;
1765;SDS011;880;52.452;8.656;2022-12-18T04:13:02;14.20;;;8.90;;
1765;SDS011;880;52.452;8.656;2022-12-18T04:15:37;14.17;;;9.20;;
1765;SDS011;880;52.452;8.656;2022-12-18T04:18:08;12.33;;;7.80;;
1765;SDS011;880;52.452;8.656;2022-12-18T04:20:39;10.83;;;8.10;;
1765;SDS011;880;52.452;8.656;2022-12-18T04:23:07;15.30;;;9.03;;
1765;SDS011;880;52.452;8.656;2022-12-18T04:25:35;12.70;;;8.50;;
1765;SDS011;880;52.452;8.656;2022-12-18T04:28:08;13.73;;;7.73;;
1765;SDS011;880;52.452;8.656;2022-12-18T04:30:37;15.60;;;8.57;;
1765;SDS011;880;52.452;8.656;2022-12-18T04:33:08;10.60;;;7.37;;
1765;SDS011;880;52.452;8.656;2022-12-18T04:35:39;11.47;;;7.70;;
1765;SDS011;880;52.452;8.656;2022-12-18T04:38:06;12.40;;;8.10;;
1765;SDS011;880;52.452;8.656;2022-12-18T04:40:34;13.03;;;8.13;;
1765;SDS011;880;52.452;8.656;2022-12-18T04:43:07;12.33;;;8.53;;
1765;SDS011;880;52.452;8.656;2022-12-18T04:45:34;12.27;;;8.23;;
1765;SDS011;880;52.452;8.656;2022-12-18T04:48:01;11.60;;;7.40;;
1765;SDS011;880;52.452;8.656;2022-12-18T04:50:29;16.43;;;8.80;;
1765;SDS011;880;52.452;8.656;2022-12-18T04:52:57;12.40;;;8.27;;
1765;SDS011;880;52.452;8.656;2022-12-18T04:55:24;12.53;;;8.40;;
1765;SDS011;880;52.452;8.656;2022-12-18T04:57:51;12.03;;;9.17;;
1765;SDS011;880;52.452;8.656;2022-12-18T05:00:19;13.67;;;7.70;;
1765;SDS011;880;52.452;8.656;2022-12-18T05:02:47;13.53;;;8.47;;
1765;SDS011;880;52.452;8.656;2022-12-18T05:05:14;13.17;;;7.70;;
1765;SDS011;880;52.452;8.656;2022-12-18T05:07:41;13.17;;;8.10;;
1765;SDS011;880;52.452;8.656;2022-12-18T05:10:08;11.73;;;8.07;;
1765;SDS011;880;52.452;8.656;2022-12-18T05:12:35;13.90;;;8.70;;
1765;SDS011;880;52.452;8.656;2022-12-18T05:15:31;13.90;;;8.93;;
1765;SDS011;880;52.452;8.656;2022-12-18T05:17:59;14.90;;;8.27;;
1765;SDS011;880;52.452;8.656;2022-12-18T05:20:27;14.37;;;7.93;;
1765;SDS011;880;52.452;8.656;2022-12-18T05:22:54;11.57;;;7.43;;
1765;SDS011;880;52.452;8.656;2022-12-18T05:25:22;12.70;;;7.90;;
1765;SDS011;880;52.452;8.656;2022-12-18T05:27:49;15.90;;;8.67;;
1765;SDS011;880;52.452;8.656;2022-12-18T05:30:16;11.50;;;7.67;;
1765;SDS011;880;52.452;8.656;2022-12-18T05:32:43;10.40;;;7.20;;
1765;SDS011;880;52.452;8.656;2022-12-18T05:35:11;14.57;;;8.20;;
1765;SDS011;880;52.452;8.656;2022-12-18T05:37:39;11.73;;;8.60;;
1765;SDS011;880;52.452;8.656;2022-12-18T05:40:08;12.53;;;8.10;;
1765;SDS011;880;52.452;8.656;2022-12-18T05:42:37;17.50;;;8.47;;
1765;SDS011;880;52.452;8.656;2022-12-18T05:45:04;11.50;;;7.50;;
1765;SDS011;880;52.452;8.656;2022-12-18T05:47:32;11.50;;;7.73;;
1765;SDS011;880;52.452;8.656;2022-12-18T05:49:59;10.30;;;7.20;;
1765;SDS011;880;52.452;8.656;2022-12-18T05:52:26;15.07;;;7.63;;
1765;SDS011;880;52.452;8.656;2022-12-18T05:54:53;12.10;;;7.63;;
1765;SDS011;880;52.452;8.656;2022-12-18T05:57:20;7.70;;;6.83;;
1765;SDS011;880;52.452;8.656;2022-12-18T05:59:47;10.60;;;7.53;;
1765;SDS011;880;52.452;8.656;2022-12-18T06:02:14;12.17;;;7.57;;
1765;SDS011;880;52.452;8.656;2022-12-18T06:04:41;14.87;;;7.43;;
1765;SDS011;880;52.452;8.656;2022-12-18T06:07:08;10.03;;;6.90;;
1765;SDS011;880;52.452;8.656;2022-12-18T06:09:35;16.17;;;8.67;;
1765;SDS011;880;52.452;8.656;2022-12-18T06:12:02;11.53;;;7.70;;
1765;SDS011;880;52.452;8.656;2022-12-18T06:14:30;13.80;;;7.80;;
1765;SDS011;880;52.452;8.656;2022-12-18T06:16:57;12.73;;;8.57;;
1765;SDS011;880;52.452;8.656;2022-12-18T06:19:23;12.77;;;8.10;;
1765;SDS011;880;52.452;8.656;2022-12-18T06:21:51;17.53;;;8.93;;
1765;SDS011;880;52.452;8.656;2022-12-18T06:24:18;15.20;;;8.80;;
1765;SDS011;880;52.452;8.656;2022-12-18T06:26:44;14.87;;;9.93;;
1765;SDS011;880;52.452;8.656;2022-12-18T06:29:12;17.47;;;8.90;;
1765;SDS011;880;52.452;8.656;2022-12-18T06:31:40;13.90;;;8.37;;
1765;SDS011;880;52.452;8.656;2022-12-18T06:34:07;15.53;;;8.10;;
1765;SDS011;880;52.452;8.656;2022-12-18T06:36:34;14.33;;;8.70;;
1765;SDS011;880;52.452;8.656;2022-12-18T06:39:01;12.07;;;8.27;;
1765;SDS011;880;52.452;8.656;2022-12-18T06:41:28;11.80;;;8.37;;
1765;SDS011;880;52.452;8.656;2022-12-18T06:43:55;12.87;;;7.70;;
1765;SDS011;880;52.452;8.656;2022-12-18T06:46:25;11.50;;;7.13;;
1765;SDS011;880;52.452;8.656;2022-12-18T06:48:52;12.30;;;8.10;;
1765;SDS011;880;52.452;8.656;2022-12-18T06:51:20;11.40;;;7.67;;
1765;SDS011;880;52.452;8.656;2022-12-18T06:53:48;12.47;;;7.93;;
1765;SDS011;880;52.452;8.656;2022-12-18T06:56:15;11.30;;;7.50;;
1765;SDS011;880;52.452;8.656;2022-12-18T06:58:42;10.37;;;9.00;;
1765;SDS011;880;52.452;8.656;2022-12-18T07:01:10;15.10;;;8.60;;
1765;SDS011;880;52.452;8.656;2022-12-18T07:03:39;13.33;;;8.93;;
1765;SDS011;880;52.452;8.656;2022-12-18T07:06:15;11.17;;;7.90;;
1765;SDS011;880;52.452;8.656;2022-12-18T07:08:45;16.60;;;7.60;;
1765;SDS011;880;52.452;8.656;2022-12-18T07:11:13;12.23;;;8.80;;
1765;SDS011;880;52.452;8.656;2022-12-18T07:13:41;10.90;;;8.77;;
1765;SDS011;880;52.452;8.656;2022-12-18T07:16:09;15.10;;;9.23;;
1765;SDS011;880;52.452;8.656;2022-12-18T07:18:51;14.50;;;8.07;;
1765;SDS011;880;52.452;8.656;2022-12-18T07:21:19;18.00;;;8.73;;
1765;SDS011;880;52.452;8.656;2022-12-18T07:23:47;10.10;;;8.00;;
1765;SDS011;880;52.452;8.656;2022-12-18T07:26:15;13.23;;;8.60;;
1765;SDS011;880;52.452;8.656;2022-12-18T07:28:45;14.90;;;8.50;;
1765;SDS011;880;52.452;8.656;2022-12-18T07:31:14;12.13;;;8.30;;
1765;SDS011;880;52.452;8.656;2022-12-18T07:33:46;13.00;;;8.43;;
1765;SDS011;880;52.452;8.656;2022-12-18T07:36:14;11.63;;;8.37;;
1765;SDS011;880;52.452;8.656;2022-12-18T07:38:41;11.13;;;8.30;;
1765;SDS011;880;52.452;8.656;2022-12-18T07:41:10;16.60;;;8.50;;
1765;SDS011;880;52.452;8.656;2022-12-18T07:43:39;12.20;;;7.87;;
1765;SDS011;880;52.452;8.656;2022-12-18T07:46:08;21.03;;;12.60;;
1765;SDS011;880;52.452;8.656;2022-12-18T07:48:39;22.90;;;11.90;;
1765;SDS011;880;52.452;8.656;2022-12-18T07:51:15;16.37;;;10.30;;
1765;SDS011;880;52.452;8.656;2022-12-18T07:53:43;15.07;;;10.10;;
1765;SDS011;880;52.452;8.656;2022-12-18T07:56:11;16.23;;;9.67;;
1765;SDS011;880;52.452;8.656;2022-12-18T07:58:57;13.07;;;9.30;;
1765;SDS011;880;52.452;8.656;2022-12-18T08:01:25;10.33;;;7.10;;
1765;SDS011;880;52.452;8.656;2022-12-18T08:03:53;12.80;;;8.20;;
1765;SDS011;880;52.452;8.656;2022-12-18T08:06:20;12.10;;;8.50;;
1765;SDS011;880;52.452;8.656;2022-12-18T08:08:53;19.43;;;10.50;;
1765;SDS011;880;52.452;8.656;2022-12-18T08:11:22;19.73;;;11.97;;
1765;SDS011;880;52.452;8.656;2022-12-18T08:13:51;15.80;;;10.20;;
1765;SDS011;880;52.452;8.656;2022-12-18T08:16:19;13.07;;;9.80;;
1765;SDS011;880;52.452;8.656;2022-12-18T08:18:48;16.03;;;10.20;;
1765;SDS011;880;52.452;8.656;2022-12-18T08:21:18;16.77;;;10.80;;
1765;SDS011;880;52.452;8.656;2022-12-18T08:23:51;18.50;;;10.67;;
1765;SDS011;880;52.452;8.656;2022-12-18T08:26:20;16.43;;;10.10;;
1765;SDS011;880;52.452;8.656;2022-12-18T08:28:48;19.80;;;9.77;;
1765;SDS011;880;52.452;8.656;2022-12-18T08:31:18;17.00;;;10.80;;
1765;SDS011;880;52.452;8.656;2022-12-18T08:33:50;14.90;;;10.17;;
1765;SDS011;880;52.452;8.656;2022-12-18T08:36:19;18.63;;;10.70;;
1765;SDS011;880;52.452;8.656;2022-12-18T08:38:47;18.50;;;10.00;;
1765;SDS011;880;52.452;8.656;2022-12-18T08:41:15;12.77;;;8.73;;
1765;SDS011;880;52.452;8.656;2022-12-18T08:43:43;11.17;;;8.63;;
1765;SDS011;880;52.452;8.656;2022-12-18T08:46:34;13.83;;;9.87;;
1765;SDS011;880;52.452;8.656;2022-12-18T08:49:04;14.47;;;10.17;;
1765;SDS011;880;52.452;8.656;2022-12-18T08:51:33;16.33;;;9.73;;
1765;SDS011;880;52.452;8.656;2022-12-18T08:54:02;17.20;;;10.60;;
1765;SDS011;880;52.452;8.656;2022-12-18T08:56:31;14.07;;;9.80;;
1765;SDS011;880;52.452;8.656;2022-12-18T08:58:59;14.43;;;9.77;;
1765;SDS011;880;52.452;8.656;2022-12-18T09:01:26;13.17;;;9.20;;
1765;SDS011;880;52.452;8.656;2022-12-18T09:03:53;11.50;;;8.53;;
1765;SDS011;880;52.452;8.656;2022-12-18T09:06:21;13.60;;;9.00;;
1765;SDS011;880;52.452;8.656;2022-12-18T09:08:49;12.70;;;8.83;;
1765;SDS011;880;52.452;8.656;2022-12-18T09:11:21;15.17;;;10.70;;
1765;SDS011;880;52.452;8.656;2022-12-18T09:13:51;15.83;;;10.40;;
1765;SDS011;880;52.452;8.656;2022-12-18T09:16:20;17.80;;;9.53;;
1765;SDS011;880;52.452;8.656;2022-12-18T09:18:57;12.80;;;8.87;;
1765;SDS011;880;52.452;8.656;2022-12-18T09:21:30;15.67;;;9.60;;
1765;SDS011;880;52.452;8.656;2022-12-18T09:24:02;14.40;;;10.10;;
1765;SDS011;880;52.452;8.656;2022-12-18T09:26:34;16.67;;;10.33;;
1765;SDS011;880;52.452;8.656;2022-12-18T09:29:02;15.33;;;10.10;;
1765;SDS011;880;52.452;8.656;2022-12-18T09:31:29;16.07;;;9.70;;
1765;SDS011;880;52.452;8.656;2022-12-18T09:33:56;26.67;;;16.73;;
1765;SDS011;880;52.452;8.656;2022-12-18T09:36:24;45.27;;;27.47;;
1765;SDS011;880;52.452;8.656;2022-12-18T09:38:51;19.90;;;15.30;;
1765;SDS011;880;52.452;8.656;2022-12-18T09:41:33;14.13;;;11.00;;
1765;SDS011;880;52.452;8.656;2022-12-18T09:44:19;13.33;;;8.93;;
1765;SDS011;880;52.452;8.656;2022-12-18T09:47:02;15.83;;;10.20;;
1765;SDS011;880;52.452;8.656;2022-12-18T09:49:48;11.97;;;8.80;;
1765;SDS011;880;52.452;8.656;2022-12-18T09:52:42;12.47;;;9.73;;
1765;SDS011;880;52.452;8.656;2022-12-18T09:55:22;17.07;;;8.77;;
1765;SDS011;880;52.452;8.656;2022-12-18T10:00:36;13.40;;;10.70;;
1765;SDS011;880;52.452;8.656;2022-12-18T10:03:08;12.80;;;8.73;;
1765;SDS011;880;52.452;8.656;2022-12-18T10:05:45;12.50;;;8.70;;
1765;SDS011;880;52.452;8.656;2022-12-18T10:08:54;12.10;;;9.37;;
1765;SDS011;880;52.452;8.656;2022-12-18T10:14:46;11.53;;;8.93;;
1765;SDS011;880;52.452;8.656;2022-12-18T10:17:47;10.67;;;8.80;;
1765;SDS011;880;52.452;8.656;2022-12-18T10:26:26;14.83;;;13.20;;
1765;SDS011;880;52.452;8.656;2022-12-18T10:28:33;16.70;;;12.50;;
1765;SDS011;880;52.452;8.656;2022-12-18T10:31:21;11.53;;;8.60;;
1765;SDS011;880;52.452;8.656;2022-12-18T10:33:51;12.73;;;9.93;;
1765;SDS011;880;52.452;8.656;2022-12-18T10:36:22;14.20;;;9.10;;
1765;SDS011;880;52.452;8.656;2022-12-18T10:38:51;25.07;;;14.83;;
1765;SDS011;880;52.452;8.656;2022-12-18T10:43:48;12.83;;;10.80;;
1765;SDS011;880;52.452;8.656;2022-12-18T10:46:40;10.60;;;8.30;;
1765;SDS011;880;52.452;8.656;2022-12-18T10:49:18;9.83;;;7.80;;
1765;SDS011;880;52.452;8.656;2022-12-18T10:54:55;11.27;;;7.97;;
1765;SDS011;880;52.452;8.656;2022-12-18T11:00:19;10.73;;;8.10;;
1765;SDS011;880;52.452;8.656;2022-12-18T11:02:54;7.53;;;6.73;;
1765;SDS011;880;52.452;8.656;2022-12-18T11:07:59;9.52;;;6.47;;
1765;SDS011;880;52.452;8.656;2022-12-18T11:15:59;8.00;;;6.30;;
1765;SDS011;880;52.452;8.656;2022-12-18T11:18:28;5.63;;;4.97;;
1765;SDS011;880;52.452;8.656;2022-12-18T11:23:36;6.90;;;4.93;;
1765;SDS011;880;52.452;8.656;2022-12-18T11:26:20;7.13;;;5.53;;
1765;SDS011;880;52.452;8.656;2022-12-18T11:29:09;7.13;;;5.53;;
1765;SDS011;880;52.452;8.656;2022-12-18T11:31:44;7.00;;;5.10;;
1765;SDS011;880;52.452;8.656;2022-12-18T11:34:13;5.33;;;4.80;;
1765;SDS011;880;52.452;8.656;2022-12-18T11:36:55;4.93;;;4.53;;
1765;SDS011;880;52.452;8.656;2022-12-18T11:39:31;5.27;;;4.50;;
1765;SDS011;880;52.452;8.656;2022-12-18T11:42:12;6.30;;;4.83;;
1765;SDS011;880;52.452;8.656;2022-12-18T11:44:49;5.03;;;4.53;;
1765;SDS011;880;52.452;8.656;2022-12-18T11:50:24;6.70;;;6.05;;
1765;SDS011;880;52.452;8.656;2022-12-18T11:52:56;6.03;;;5.43;;
1765;SDS011;880;52.452;8.656;2022-12-18T11:55:35;11.43;;;7.90;;
1765;SDS011;880;52.452;8.656;2022-12-18T11:58:37;38.50;;;21.40;;
1765;SDS011;880;52.452;8.656;2022-12-18T12:07:20;5.10;;;4.57;;
1765;SDS011;880;52.452;8.656;2022-12-18T12:10:13;5.87;;;5.10;;
1765;SDS011;880;52.452;8.656;2022-12-18T12:16:06;5.80;;;5.13;;
1765;SDS011;880;52.452;8.656;2022-12-18T12:19:04;10.47;;;7.07;;
1765;SDS011;880;52.452;8.656;2022-12-18T12:30:57;8.17;;;5.63;;
1765;SDS011;880;52.452;8.656;2022-12-18T12:33:54;6.97;;;5.30;;
1765;SDS011;880;52.452;8.656;2022-12-18T12:39:47;6.55;;;5.85;;
1765;SDS011;880;52.452;8.656;2022-12-18T12:42:17;5.90;;;5.30;;
1765;SDS011;880;52.452;8.656;2022-12-18T12:45:29;5.10;;;4.40;;
1765;SDS011;880;52.452;8.656;2022-12-18T12:48:05;8.53;;;4.77;;
1765;SDS011;880;52.452;8.656;2022-12-18T12:50:40;6.10;;;4.53;;
1765;SDS011;880;52.452;8.656;2022-12-18T12:53:09;34.17;;;17.73;;
1765;SDS011;880;52.452;8.656;2022-12-18T12:55:52;5.50;;;4.90;;
1765;SDS011;880;52.452;8.656;2022-12-18T12:58:25;7.00;;;5.13;;
1765;SDS011;880;52.452;8.656;2022-12-18T13:02:04;4.83;;;4.33;;
1765;SDS011;880;52.452;8.656;2022-12-18T13:04:50;5.80;;;5.20;;
1765;SDS011;880;52.452;8.656;2022-12-18T13:07:27;5.50;;;5.00;;
1765;SDS011;880;52.452;8.656;2022-12-18T13:15:50;5.47;;;4.50;;
1765;SDS011;880;52.452;8.656;2022-12-18T13:18:33;9.23;;;4.67;;
1765;SDS011;880;52.452;8.656;2022-12-18T13:21:08;7.57;;;4.83;;
1765;SDS011;880;52.452;8.656;2022-12-18T13:23:54;7.10;;;5.67;;
1765;SDS011;880;52.452;8.656;2022-12-18T13:28:54;8.47;;;5.80;;
1765;SDS011;880;52.452;8.656;2022-12-18T13:36:54;7.13;;;5.13;;
1765;SDS011;880;52.452;8.656;2022-12-18T13:39:32;6.37;;;4.80;;
1765;SDS011;880;52.452;8.656;2022-12-18T13:44:35;5.67;;;4.60;;
1765;SDS011;880;52.452;8.656;2022-12-18T13:47:25;5.87;;;4.90;;
1765;SDS011;880;52.452;8.656;2022-12-18T13:50:00;7.37;;;4.93;;
1765;SDS011;880;52.452;8.656;2022-12-18T13:53:01;7.00;;;5.10;;
1765;SDS011;880;52.452;8.656;2022-12-18T13:55:31;6.30;;;5.27;;
1765;SDS011;880;52.452;8.656;2022-12-18T13:58:05;8.00;;;5.38;;
1765;SDS011;880;52.452;8.656;2022-12-18T14:00:32;7.83;;;6.00;;
1765;SDS011;880;52.452;8.656;2022-12-18T14:03:00;7.37;;;6.53;;
1765;SDS011;880;52.452;8.656;2022-12-18T14:07:59;8.50;;;5.80;;
1765;SDS011;880;52.452;8.656;2022-12-18T14:10:32;6.60;;;5.50;;
1765;SDS011;880;52.452;8.656;2022-12-18T14:13:34;8.37;;;5.63;;
1765;SDS011;880;52.452;8.656;2022-12-18T14:16:11;7.80;;;5.80;;
1765;SDS011;880;52.452;8.656;2022-12-18T14:18:53;6.90;;;6.00;;
1765;SDS011;880;52.452;8.656;2022-12-18T14:21:40;7.70;;;5.27;;
1765;SDS011;880;52.452;8.656;2022-12-18T14:24:20;7.17;;;6.07;;
1765;SDS011;880;52.452;8.656;2022-12-18T14:26:48;7.80;;;5.67;;
1765;SDS011;880;52.452;8.656;2022-12-18T14:29:22;5.53;;;4.90;;
1765;SDS011;880;52.452;8.656;2022-12-18T14:32:09;7.30;;;5.73;;
1765;SDS011;880;52.452;8.656;2022-12-18T14:34:51;7.10;;;5.43;;
1765;SDS011;880;52.452;8.656;2022-12-18T14:37:22;6.77;;;5.47;;
1765;SDS011;880;52.452;8.656;2022-12-18T14:40:01;6.20;;;5.30;;
1765;SDS011;880;52.452;8.656;2022-12-18T14:42:36;7.47;;;6.03;;
1765;SDS011;880;52.452;8.656;2022-12-18T14:48:53;8.80;;;7.20;;
1765;SDS011;880;52.452;8.656;2022-12-18T14:51:01;7.00;;;5.77;;
1765;SDS011;880;52.452;8.656;2022-12-18T14:53:42;6.53;;;5.67;;
1765;SDS011;880;52.452;8.656;2022-12-18T14:56:20;8.20;;;6.27;;
1765;SDS011;880;52.452;8.656;2022-12-18T15:02:12;7.53;;;6.60;;
1765;SDS011;880;52.452;8.656;2022-12-18T15:04:59;7.80;;;6.23;;
1765;SDS011;880;52.452;8.656;2022-12-18T15:07:42;6.67;;;5.90;;
1765;SDS011;880;52.452;8.656;2022-12-18T15:12:45;6.63;;;5.60;;
1765;SDS011;880;52.452;8.656;2022-12-18T15:20:50;6.50;;;5.90;;
1765;SDS011;880;52.452;8.656;2022-12-18T15:26:09;8.10;;;5.70;;
1765;SDS011;880;52.452;8.656;2022-12-18T15:31:28;6.03;;;5.17;;
1765;SDS011;880;52.452;8.656;2022-12-18T15:34:09;7.57;;;5.50;;
1765;SDS011;880;52.452;8.656;2022-12-18T15:36:46;7.43;;;5.53;;
1765;SDS011;880;52.452;8.656;2022-12-18T15:39:13;6.40;;;5.77;;
1765;SDS011;880;52.452;8.656;2022-12-18T15:41:40;8.70;;;6.17;;
1765;SDS011;880;52.452;8.656;2022-12-18T15:44:27;7.07;;;5.43;;
1765;SDS011;880;52.452;8.656;2022-12-18T15:46:54;12.27;;;6.07;;
1765;SDS011;880;52.452;8.656;2022-12-18T15:49:21;7.97;;;5.10;;
1765;SDS011;880;52.452;8.656;2022-12-18T15:51:50;5.47;;;4.40;;
1765;SDS011;880;52.452;8.656;2022-12-18T15:54:20;10.60;;;5.97;;
1765;SDS011;880;52.452;8.656;2022-12-18T15:57:08;5.47;;;4.83;;
1765;SDS011;880;52.452;8.656;2022-12-18T15:59:49;6.70;;;6.00;;
1765;SDS011;880;52.452;8.656;2022-12-18T16:02:24;10.60;;;5.40;;
1765;SDS011;880;52.452;8.656;2022-12-18T16:04:52;9.47;;;6.67;;
1765;SDS011;880;52.452;8.656;2022-12-18T16:07:20;6.33;;;5.73;;
1765;SDS011;880;52.452;8.656;2022-12-18T16:09:50;6.93;;;5.47;;
1765;SDS011;880;52.452;8.656;2022-12-18T16:12:19;7.40;;;6.17;;
1765;SDS011;880;52.452;8.656;2022-12-18T16:14:49;7.30;;;4.80;;
1765;SDS011;880;52.452;8.656;2022-12-18T16:17:16;7.33;;;5.27;;
1765;SDS011;880;52.452;8.656;2022-12-18T16:19:43;6.87;;;5.10;;
1765;SDS011;880;52.452;8.656;2022-12-18T16:22:23;8.20;;;6.57;;
1765;SDS011;880;52.452;8.656;2022-12-18T16:24:54;6.53;;;5.17;;
1765;SDS011;880;52.452;8.656;2022-12-18T16:27:23;5.43;;;4.93;;
1765;SDS011;880;52.452;8.656;2022-12-18T16:29:51;7.60;;;6.13;;
1765;SDS011;880;52.452;8.656;2022-12-18T16:32:19;7.57;;;5.90;;
1765;SDS011;880;52.452;8.656;2022-12-18T16:34:48;6.20;;;5.30;;
1765;SDS011;880;52.452;8.656;2022-12-18T16:37:17;6.00;;;4.80;;
1765;SDS011;880;52.452;8.656;2022-12-18T16:39:45;6.40;;;4.93;;
1765;SDS011;880;52.452;8.656;2022-12-18T16:42:16;7.50;;;5.93;;
1765;SDS011;880;52.452;8.656;2022-12-18T16:44:46;8.53;;;5.60;;
1765;SDS011;880;52.452;8.656;2022-12-18T16:47:14;6.23;;;5.37;;
1765;SDS011;880;52.452;8.656;2022-12-18T16:49:43;6.07;;;4.90;;
1765;SDS011;880;52.452;8.656;2022-12-18T16:52:11;6.80;;;5.30;;
1765;SDS011;880;52.452;8.656;2022-12-18T16:54:38;6.00;;;5.17;;
1765;SDS011;880;52.452;8.656;2022-12-18T16:57:05;8.20;;;5.80;;
1765;SDS011;880;52.452;8.656;2022-12-18T16:59:32;7.10;;;5.37;;
1765;SDS011;880;52.452;8.656;2022-12-18T17:02:00;7.87;;;5.27;;
1765;SDS011;880;52.452;8.656;2022-12-18T17:04:27;6.87;;;5.50;;
1765;SDS011;880;52.452;8.656;2022-12-18T17:06:54;6.00;;;4.70;;
1765;SDS011;880;52.452;8.656;2022-12-18T17:09:21;6.30;;;5.40;;
1765;SDS011;880;52.452;8.656;2022-12-18T17:11:52;7.30;;;5.90;;
1765;SDS011;880;52.452;8.656;2022-12-18T17:14:20;8.47;;;6.07;;
1765;SDS011;880;52.452;8.656;2022-12-18T17:16:50;7.50;;;5.90;;
1765;SDS011;880;52.452;8.656;2022-12-18T17:19:38;6.97;;;5.60;;
1765;SDS011;880;52.452;8.656;2022-12-18T17:22:05;8.10;;;6.60;;
1765;SDS011;880;52.452;8.656;2022-12-18T17:24:33;7.20;;;5.80;;
1765;SDS011;880;52.452;8.656;2022-12-18T17:27:01;72.53;;;30.23;;
1765;SDS011;880;52.452;8.656;2022-12-18T17:29:29;88.23;;;27.00;;
1765;SDS011;880;52.452;8.656;2022-12-18T17:31:56;11.27;;;8.00;;
1765;SDS011;880;52.452;8.656;2022-12-18T17:34:26;7.80;;;6.37;;
1765;SDS011;880;52.452;8.656;2022-12-18T17:36:54;7.57;;;6.80;;
1765;SDS011;880;52.452;8.656;2022-12-18T17:39:22;9.80;;;6.70;;
1765;SDS011;880;52.452;8.656;2022-12-18T17:41:49;8.50;;;5.60;;
1765;SDS011;880;52.452;8.656;2022-12-18T17:44:16;6.30;;;5.70;;
1765;SDS011;880;52.452;8.656;2022-12-18T17:46:44;7.37;;;5.80;;
1765;SDS011;880;52.452;8.656;2022-12-18T17:49:13;5.53;;;4.90;;
1765;SDS011;880;52.452;8.656;2022-12-18T17:51:41;7.90;;;6.10;;
1765;SDS011;880;52.452;8.656;2022-12-18T17:54:08;7.43;;;5.40;;
1765;SDS011;880;52.452;8.656;2022-12-18T17:56:36;7.50;;;6.30;;
1765;SDS011;880;52.452;8.656;2022-12-18T17:59:05;9.13;;;6.17;;
1765;SDS011;880;52.452;8.656;2022-12-18T18:01:32;9.73;;;5.73;;